createdAt,value
2022-10-13T00:00:48.968Z,10.72
2022-10-13T00:03:16.510Z,10.65
2022-10-13T00:05:45.541Z,10.71
2022-10-13T00:08:13.192Z,10.68
2022-10-13T00:10:40.855Z,10.63
2022-10-13T00:13:08.455Z,10.50
2022-10-13T00:15:44.036Z,10.49
2022-10-13T00:18:11.004Z,10.50
2022-10-13T00:20:43.232Z,10.55
2022-10-13T00:23:10.169Z,10.44
2022-10-13T00:25:42.166Z,10.41
2022-10-13T00:28:08.677Z,10.36
2022-10-13T00:30:37.831Z,10.39
2022-10-13T00:33:04.503Z,10.32
2022-10-13T00:35:31.129Z,10.22
2022-10-13T00:37:57.654Z,10.22
2022-10-13T00:40:24.502Z,10.21
2022-10-13T00:42:51.037Z,10.22
2022-10-13T00:45:26.289Z,10.20
2022-10-13T00:48:00.921Z,10.02
2022-10-13T00:50:35.881Z,9.96
2022-10-13T00:53:02.849Z,9.96
2022-10-13T00:55:36.888Z,9.81
2022-10-13T00:58:07.506Z,9.72
2022-10-13T01:00:35.359Z,9.72
2022-10-13T01:03:02.907Z,9.75
2022-10-13T01:05:30.377Z,9.71
2022-10-13T01:07:57.948Z,9.56
2022-10-13T01:10:45.911Z,9.43
2022-10-13T01:13:17.983Z,9.37
2022-10-13T01:15:58.500Z,9.44
2022-10-13T01:18:51.538Z,9.49
2022-10-13T01:21:28.976Z,9.52
2022-10-13T01:24:20.462Z,9.48
2022-10-13T01:26:49.940Z,9.51
2022-10-13T01:29:16.409Z,9.66
2022-10-13T01:31:53.889Z,9.73
2022-10-13T01:34:20.202Z,9.72
2022-10-13T01:36:50.666Z,9.76
2022-10-13T01:39:43.059Z,9.81
2022-10-13T01:42:38.857Z,9.93
2022-10-13T01:45:07.812Z,10.05
2022-10-13T01:47:35.677Z,10.10
2022-10-13T01:50:02.850Z,10.21
2022-10-13T01:52:35.705Z,10.30
2022-10-13T01:55:12.349Z,10.28
2022-10-13T01:57:41.741Z,10.22
2022-10-13T02:00:11.742Z,10.16
2022-10-13T02:02:52.847Z,10.13
2022-10-13T02:05:49.304Z,10.10
2022-10-13T02:08:30.943Z,10.00
2022-10-13T02:11:10.942Z,9.93
2022-10-13T02:13:40.115Z,9.93
2022-10-13T02:16:07.009Z,9.89
2022-10-13T02:18:35.869Z,9.90
2022-10-13T02:21:04.080Z,9.91
2022-10-13T02:23:31.584Z,10.00
2022-10-13T02:25:59.607Z,10.03
2022-10-13T02:28:27.664Z,10.04
2022-10-13T02:30:54.237Z,10.01
2022-10-13T02:33:20.795Z,10.00
2022-10-13T02:35:47.380Z,9.93
2022-10-13T02:38:13.913Z,9.89
2022-10-13T02:40:40.507Z,9.85
2022-10-13T02:43:07.266Z,9.85
2022-10-13T02:45:33.821Z,9.86
2022-10-13T02:48:00.390Z,9.83
2022-10-13T02:50:27.122Z,9.81
2022-10-13T02:52:53.647Z,9.83
2022-10-13T02:55:20.210Z,9.77
2022-10-13T02:57:46.705Z,9.75
2022-10-13T03:00:13.888Z,9.78
2022-10-13T03:02:40.439Z,9.83
2022-10-13T03:05:07.214Z,9.80
2022-10-13T03:07:33.743Z,9.80
2022-10-13T03:10:00.341Z,9.78
2022-10-13T03:12:26.852Z,9.77
2022-10-13T03:14:53.405Z,9.75
2022-10-13T03:17:20.384Z,9.74
2022-10-13T03:19:46.933Z,9.74
2022-10-13T03:22:15.375Z,9.75
2022-10-13T03:24:42.601Z,9.70
2022-10-13T03:27:09.290Z,9.65
2022-10-13T03:29:36.025Z,9.69
2022-10-13T03:32:02.631Z,9.70
2022-10-13T03:34:29.203Z,9.67
2022-10-13T03:36:55.712Z,9.67
2022-10-13T03:39:22.272Z,9.64
2022-10-13T03:41:48.783Z,9.65
2022-10-13T03:44:15.646Z,9.68
2022-10-13T03:46:42.405Z,9.71
2022-10-13T03:49:11.914Z,9.69
2022-10-13T03:51:38.922Z,9.74
2022-10-13T03:54:05.495Z,9.76
2022-10-13T03:56:32.026Z,9.83
2022-10-13T03:59:00.293Z,9.93
2022-10-13T04:01:29.478Z,9.95
2022-10-13T04:03:57.656Z,10.02
2022-10-13T04:06:25.517Z,10.03
2022-10-13T04:08:52.473Z,10.10
2022-10-13T04:11:19.645Z,10.15
2022-10-13T04:13:46.269Z,10.16
2022-10-13T04:16:32.084Z,10.22
2022-10-13T04:19:04.846Z,10.24
2022-10-13T04:21:33.983Z,10.25
2022-10-13T04:24:01.607Z,10.32
2022-10-13T04:26:31.295Z,10.34
2022-10-13T04:28:58.129Z,10.42
2022-10-13T04:31:25.666Z,10.45
2022-10-13T04:33:53.762Z,10.48
2022-10-13T04:36:20.801Z,10.47
2022-10-13T04:38:47.611Z,10.45
2022-10-13T04:41:15.766Z,10.52
2022-10-13T04:43:42.662Z,10.51
2022-10-13T04:46:18.929Z,10.54
2022-10-13T04:48:46.510Z,10.55
2022-10-13T04:51:19.334Z,10.57
2022-10-13T04:53:46.396Z,10.57
2022-10-13T04:56:15.220Z,10.66
2022-10-13T04:58:43.995Z,10.59
2022-10-13T05:01:21.154Z,10.56
2022-10-13T05:03:51.477Z,10.56
2022-10-13T05:06:21.599Z,10.59
2022-10-13T05:08:48.642Z,10.55
2022-10-13T05:11:15.213Z,10.56
2022-10-13T05:13:41.726Z,10.59
2022-10-13T05:16:09.848Z,10.56
2022-10-13T05:18:37.265Z,10.56
2022-10-13T05:21:09.387Z,10.60
2022-10-13T05:23:36.101Z,10.68
2022-10-13T05:26:07.648Z,10.66
2022-10-13T05:28:34.391Z,10.67
2022-10-13T05:31:14.912Z,10.68
2022-10-13T05:33:42.138Z,10.71
2022-10-13T05:36:14.805Z,10.76
2022-10-13T05:38:41.684Z,10.72
2022-10-13T05:41:12.024Z,10.81
2022-10-13T05:43:43.262Z,10.84
2022-10-13T05:46:10.265Z,10.84
2022-10-13T05:48:37.787Z,10.75
2022-10-13T05:51:17.943Z,10.75
2022-10-13T05:53:55.357Z,10.87
2022-10-13T05:56:27.281Z,10.96
2022-10-13T05:58:58.918Z,11.05
2022-10-13T06:01:28.819Z,11.16
2022-10-13T06:04:01.991Z,11.22
2022-10-13T06:06:31.454Z,11.19
2022-10-13T06:08:59.123Z,11.18
2022-10-13T06:11:25.865Z,11.15
2022-10-13T06:13:52.412Z,11.15
2022-10-13T06:16:19.087Z,11.15
2022-10-13T06:18:46.641Z,11.26
2022-10-13T06:21:13.583Z,11.32
2022-10-13T06:23:40.493Z,11.34
2022-10-13T06:26:08.833Z,11.39
2022-10-13T06:28:35.911Z,11.43
2022-10-13T06:31:05.361Z,11.45
2022-10-13T06:33:32.715Z,11.55
2022-10-13T06:36:07.094Z,11.59
2022-10-13T06:38:34.020Z,11.52
2022-10-13T06:41:04.763Z,11.53
2022-10-13T06:43:38.950Z,11.51
2022-10-13T06:46:07.162Z,11.59
2022-10-13T06:48:33.957Z,11.68
2022-10-13T06:51:08.949Z,11.77
2022-10-13T06:53:37.139Z,11.82
2022-10-13T06:56:06.367Z,11.86
2022-10-13T06:58:34.625Z,11.91
2022-10-13T07:01:01.287Z,11.83
2022-10-13T07:03:28.016Z,11.82
2022-10-13T07:05:54.575Z,11.89
2022-10-13T07:08:21.116Z,11.91
2022-10-13T07:10:47.953Z,11.98
2022-10-13T07:13:14.537Z,12.02
2022-10-13T07:15:41.471Z,12.05
2022-10-13T07:18:08.348Z,12.05
2022-10-13T07:20:35.502Z,12.14
2022-10-13T07:23:02.429Z,12.10
2022-10-13T07:25:29.324Z,11.92
2022-10-13T07:27:55.949Z,11.87
2022-10-13T07:30:22.539Z,11.91
2022-10-13T07:32:52.324Z,12.06
2022-10-13T07:35:19.063Z,12.00
2022-10-13T07:37:45.606Z,12.00
2022-10-13T07:40:12.352Z,11.91
2022-10-13T07:42:38.895Z,11.92
2022-10-13T07:45:06.075Z,11.80
2022-10-13T07:47:32.892Z,11.82
2022-10-13T07:49:59.407Z,11.68
2022-10-13T07:52:25.927Z,11.79
2022-10-13T07:54:52.545Z,11.87
2022-10-13T07:57:19.088Z,11.96
2022-10-13T07:59:45.828Z,12.03
2022-10-13T08:02:12.374Z,12.03
2022-10-13T08:04:39.207Z,12.04
2022-10-13T08:07:06.753Z,12.12
2022-10-13T08:09:34.266Z,12.15
2022-10-13T08:12:02.050Z,12.18
2022-10-13T08:14:30.234Z,12.24
2022-10-13T08:16:57.825Z,12.37
2022-10-13T08:19:26.558Z,12.39
2022-10-13T08:21:58.696Z,12.29
2022-10-13T08:24:27.340Z,12.34
2022-10-13T08:26:54.410Z,12.37
2022-10-13T08:29:22.936Z,12.45
2022-10-13T08:31:51.376Z,12.39
2022-10-13T08:34:18.247Z,12.43
2022-10-13T08:36:44.865Z,12.52
2022-10-13T08:39:11.638Z,12.63
2022-10-13T08:41:41.691Z,12.74
2022-10-13T08:47:29.745Z,12.40
2022-10-13T08:50:04.563Z,12.40
2022-10-13T08:52:47.091Z,12.45
2022-10-13T08:55:41.783Z,12.41
2022-10-13T08:58:25.332Z,12.45
2022-10-13T09:01:23.769Z,12.57
2022-10-13T09:03:56.383Z,12.55
2022-10-13T09:06:31.808Z,12.54
2022-10-13T09:09:05.886Z,12.66
2022-10-13T09:11:37.028Z,12.76
2022-10-13T09:14:07.119Z,12.75
2022-10-13T09:16:36.012Z,12.79
2022-10-13T09:19:36.558Z,12.77
2022-10-13T09:22:24.666Z,12.88
2022-10-13T09:25:06.493Z,12.95
2022-10-13T09:27:45.759Z,13.04
2022-10-13T09:30:30.555Z,13.14
2022-10-13T09:33:26.172Z,13.18
2022-10-13T09:35:58.718Z,13.20
2022-10-13T09:38:26.575Z,13.35
2022-10-13T09:41:01.193Z,13.44
2022-10-13T09:43:34.428Z,13.37
2022-10-13T09:46:12.096Z,13.45
2022-10-13T09:48:42.552Z,13.58
2022-10-13T09:51:31.009Z,13.79
2022-10-13T09:53:57.784Z,13.81
2022-10-13T09:56:49.098Z,13.78
2022-10-13T09:59:28.081Z,13.76
2022-10-13T10:01:58.324Z,13.66
2022-10-13T10:04:35.314Z,13.73
2022-10-13T10:07:11.036Z,13.68
2022-10-13T10:09:42.656Z,13.64
2022-10-13T10:12:16.381Z,13.64
2022-10-13T10:14:43.023Z,13.70
2022-10-13T10:17:09.520Z,13.86
2022-10-13T10:19:47.390Z,14.01
2022-10-13T10:22:40.189Z,14.17
2022-10-13T10:25:33.606Z,14.42
2022-10-13T10:28:37.834Z,14.58
2022-10-13T10:31:35.590Z,14.47
2022-10-13T10:34:24.052Z,14.33
2022-10-13T10:36:57.541Z,14.50
2022-10-13T10:39:31.782Z,14.36
2022-10-13T10:42:16.818Z,14.24
2022-10-13T10:44:47.908Z,14.44
2022-10-13T10:47:23.739Z,14.61
2022-10-13T10:50:14.264Z,14.70
2022-10-13T10:53:05.074Z,14.70
2022-10-13T10:55:56.416Z,14.83
2022-10-13T10:58:44.272Z,14.96
2022-10-13T11:01:26.023Z,14.88
2022-10-13T11:04:20.597Z,14.72
2022-10-13T11:06:47.246Z,15.01
2022-10-13T11:09:37.070Z,15.12
2022-10-13T11:12:04.122Z,15.19
2022-10-13T11:14:31.313Z,15.15
2022-10-13T11:17:16.220Z,15.08
2022-10-13T11:19:42.865Z,15.43
2022-10-13T11:22:14.968Z,15.50
2022-10-13T11:24:41.850Z,15.54
2022-10-13T11:27:08.393Z,15.78
2022-10-13T11:29:47.217Z,15.46
2022-10-13T11:32:46.437Z,15.23
2022-10-13T11:35:23.965Z,15.49
2022-10-13T11:38:13.984Z,15.60
2022-10-13T11:40:59.223Z,15.66
2022-10-13T11:43:55.578Z,15.74
2022-10-13T11:46:27.800Z,15.74
2022-10-13T11:49:06.504Z,15.53
2022-10-13T11:51:51.958Z,15.52
2022-10-13T11:54:40.366Z,15.53
2022-10-13T11:57:25.420Z,15.30
2022-10-13T11:59:55.725Z,15.20
2022-10-13T12:02:26.200Z,15.31
2022-10-13T12:05:00.700Z,15.25
2022-10-13T12:07:34.864Z,15.43
2022-10-13T12:12:54.081Z,15.40
2022-10-13T12:15:44.696Z,15.21
2022-10-13T12:18:27.961Z,15.31
2022-10-13T12:21:00.405Z,15.46
2022-10-13T12:23:27.800Z,15.55
2022-10-13T12:25:58.390Z,15.56
2022-10-13T12:28:26.542Z,15.53
2022-10-13T12:30:58.973Z,15.48
2022-10-13T12:33:32.211Z,15.41
2022-10-13T12:36:14.236Z,15.33
2022-10-13T12:38:53.732Z,15.41
2022-10-13T12:41:29.117Z,15.35
2022-10-13T12:43:59.909Z,15.32
2022-10-13T12:46:57.494Z,15.40
2022-10-13T12:49:35.938Z,15.52
2022-10-13T12:52:07.165Z,15.54
2022-10-13T12:54:39.533Z,15.64
2022-10-13T12:57:42.073Z,15.79
2022-10-13T13:00:23.306Z,15.74
2022-10-13T13:03:25.710Z,15.69
2022-10-13T13:06:27.093Z,15.78
2022-10-13T13:09:34.440Z,15.80
2022-10-13T13:12:13.119Z,15.75
2022-10-13T13:14:43.216Z,15.61
2022-10-13T13:18:04.826Z,15.65
2022-10-13T13:20:36.787Z,15.77
2022-10-13T13:23:03.959Z,15.94
2022-10-13T13:25:36.977Z,15.94
2022-10-13T13:28:10.863Z,16.02
2022-10-13T13:30:37.955Z,15.84
2022-10-13T13:33:04.580Z,15.80
2022-10-13T13:35:32.274Z,15.94
2022-10-13T13:38:01.547Z,16.01
2022-10-13T13:40:28.352Z,16.03
2022-10-13T13:42:55.991Z,15.98
2022-10-13T13:45:27.074Z,15.95
2022-10-13T13:47:57.921Z,16.00
2022-10-13T13:50:37.346Z,15.96
2022-10-13T13:53:05.031Z,15.88
2022-10-13T13:55:34.223Z,15.89
2022-10-13T13:58:01.152Z,15.85
2022-10-13T14:00:27.885Z,15.80
2022-10-13T14:02:55.447Z,15.81
2022-10-13T14:05:22.302Z,15.80
2022-10-13T14:07:49.316Z,15.91
2022-10-13T14:10:19.030Z,15.84
2022-10-13T14:12:45.496Z,15.89
2022-10-13T14:15:12.534Z,15.99
2022-10-13T14:17:39.172Z,16.00
2022-10-13T14:20:06.327Z,15.93
2022-10-13T14:22:38.336Z,15.87
2022-10-13T14:25:06.064Z,15.90
2022-10-13T14:27:35.259Z,15.98
2022-10-13T14:30:02.046Z,16.02
2022-10-13T14:32:28.788Z,16.00
2022-10-13T14:34:55.543Z,16.05
2022-10-13T14:37:23.891Z,15.97
2022-10-13T14:39:57.012Z,15.93
2022-10-13T14:42:26.757Z,15.93
2022-10-13T14:44:53.407Z,15.84
2022-10-13T14:47:20.312Z,15.72
2022-10-13T14:49:47.154Z,15.70
2022-10-13T14:52:13.865Z,15.58
2022-10-13T14:54:44.688Z,15.55
2022-10-13T14:57:18.015Z,15.60
2022-10-13T14:59:46.401Z,15.54
2022-10-13T15:02:15.560Z,15.60
2022-10-13T15:04:42.554Z,15.61
2022-10-13T15:07:09.624Z,15.56
2022-10-13T15:09:52.803Z,15.60
2022-10-13T15:12:31.896Z,15.62
2022-10-13T15:14:58.681Z,15.64
2022-10-13T15:17:25.730Z,15.67
2022-10-13T15:19:52.598Z,15.62
2022-10-13T15:22:27.009Z,15.52
2022-10-13T15:24:53.966Z,15.47
2022-10-13T15:27:20.721Z,15.43
2022-10-13T15:29:47.362Z,15.39
2022-10-13T15:32:18.389Z,15.43
2022-10-13T15:34:45.782Z,15.38
2022-10-13T15:37:12.659Z,15.39
2022-10-13T15:39:39.630Z,15.51
2022-10-13T15:42:06.345Z,15.53
2022-10-13T15:44:57.447Z,15.53
2022-10-13T15:47:19.914Z,15.43
2022-10-13T15:49:46.660Z,15.45
2022-10-13T15:52:13.782Z,15.46
2022-10-13T15:54:43.353Z,15.45
2022-10-13T15:57:10.245Z,15.43
2022-10-13T15:59:36.870Z,15.33
2022-10-13T16:02:03.682Z,15.32
2022-10-13T16:04:36.343Z,15.25
2022-10-13T16:07:06.825Z,15.22
2022-10-13T16:09:33.487Z,15.19
2022-10-13T16:12:00.195Z,15.16
2022-10-13T16:14:26.768Z,15.14
2022-10-13T16:16:53.408Z,15.10
2022-10-13T16:19:20.155Z,15.09
2022-10-13T16:21:47.038Z,15.15
2022-10-13T16:24:14.246Z,15.12
2022-10-13T16:26:40.852Z,15.16
2022-10-13T16:29:07.426Z,15.11
2022-10-13T16:31:34.180Z,15.03
2022-10-13T16:34:00.682Z,15.01
2022-10-13T16:36:27.288Z,15.00
2022-10-13T16:38:54.911Z,15.05
2022-10-13T16:41:21.763Z,15.01
2022-10-13T16:43:49.226Z,14.98
2022-10-13T16:46:18.018Z,14.95
2022-10-13T16:48:45.583Z,14.93
2022-10-13T16:51:14.959Z,14.93
2022-10-13T16:53:41.982Z,14.94
2022-10-13T16:56:09.231Z,14.93
2022-10-13T16:58:36.081Z,14.87
2022-10-13T17:01:11.000Z,14.86
2022-10-13T17:03:39.186Z,14.87
2022-10-13T17:06:06.995Z,14.80
2022-10-13T17:08:33.702Z,14.79
2022-10-13T17:11:01.296Z,14.82
2022-10-13T17:13:28.098Z,14.79
2022-10-13T17:15:56.515Z,14.75
2022-10-13T17:18:24.430Z,14.73
2022-10-13T17:21:01.880Z,14.64
2022-10-13T17:23:29.365Z,14.68
2022-10-13T17:26:00.640Z,14.68
2022-10-13T17:28:27.653Z,14.63
2022-10-13T17:31:13.667Z,14.54
2022-10-13T17:33:41.758Z,14.46
2022-10-13T17:36:20.630Z,14.37
2022-10-13T17:38:49.030Z,14.40
2022-10-13T17:41:16.897Z,14.38
2022-10-13T17:43:44.296Z,14.41
2022-10-13T17:46:35.092Z,14.47
2022-10-13T17:49:00.799Z,14.38
2022-10-13T17:51:31.043Z,14.41
2022-10-13T17:53:59.901Z,14.38
2022-10-13T17:56:27.884Z,14.40
2022-10-13T17:58:55.295Z,14.31
2022-10-13T18:01:30.487Z,14.26
2022-10-13T18:03:59.884Z,14.26
2022-10-13T18:06:33.797Z,14.24
2022-10-13T18:09:09.745Z,14.24
2022-10-13T18:11:37.185Z,14.23
2022-10-13T18:14:04.758Z,14.23
2022-10-13T18:16:32.199Z,14.26
2022-10-13T18:18:58.797Z,14.22
2022-10-13T18:21:28.799Z,14.20
2022-10-13T18:23:56.987Z,14.21
2022-10-13T18:26:24.853Z,14.20
2022-10-13T18:28:52.327Z,14.15
2022-10-13T18:31:25.130Z,14.14
2022-10-13T18:33:52.617Z,14.09
2022-10-13T18:36:28.465Z,14.07
2022-10-13T18:39:01.049Z,14.11
2022-10-13T18:41:27.892Z,14.06
2022-10-13T18:43:55.548Z,14.03
2022-10-13T18:46:22.282Z,14.09
2022-10-13T18:48:48.877Z,14.07
2022-10-13T18:51:17.516Z,14.06
2022-10-13T18:53:46.973Z,14.05
2022-10-13T18:56:16.096Z,14.07
2022-10-13T18:58:43.235Z,14.05
2022-10-13T19:01:12.342Z,14.03
2022-10-13T19:03:41.512Z,14.05
2022-10-13T19:06:10.534Z,14.10
2022-10-13T19:08:37.504Z,14.11
2022-10-13T19:11:21.174Z,14.17
2022-10-13T19:13:49.109Z,14.05
2022-10-13T19:16:18.236Z,14.00
2022-10-13T19:18:45.826Z,13.95
2022-10-13T19:21:13.171Z,13.93
2022-10-13T19:23:40.675Z,13.86
2022-10-13T19:26:13.909Z,13.87
2022-10-13T19:28:41.723Z,13.81
2022-10-13T19:31:17.031Z,13.80
2022-10-13T19:33:47.059Z,13.79
2022-10-13T19:36:24.283Z,13.75
2022-10-13T19:38:51.374Z,13.67
2022-10-13T19:41:18.343Z,13.67
2022-10-13T19:43:44.891Z,13.62
2022-10-13T19:46:11.559Z,13.59
2022-10-13T19:48:38.152Z,13.57
2022-10-13T19:51:15.625Z,13.60
2022-10-13T19:53:42.430Z,13.59
2022-10-13T19:56:09.398Z,13.53
2022-10-13T19:58:36.339Z,13.55
2022-10-13T20:01:06.298Z,13.54
2022-10-13T20:03:32.835Z,13.57
2022-10-13T20:06:04.026Z,13.54
2022-10-13T20:08:30.631Z,13.55
2022-10-13T20:10:57.337Z,13.59
2022-10-13T20:13:23.976Z,13.52
2022-10-13T20:15:50.583Z,13.52
2022-10-13T20:18:17.287Z,13.61
2022-10-13T20:20:43.808Z,13.52
2022-10-13T20:23:10.396Z,13.45
2022-10-13T20:25:38.008Z,13.39
2022-10-13T20:28:05.809Z,13.40
2022-10-13T20:30:33.511Z,13.36
2022-10-13T20:33:00.418Z,13.35
2022-10-13T20:35:27.493Z,13.38
2022-10-13T20:37:54.196Z,13.48
2022-10-13T20:40:27.842Z,13.45
2022-10-13T20:42:54.440Z,13.36
2022-10-13T20:45:21.159Z,13.34
2022-10-13T20:47:48.771Z,13.33
2022-10-13T20:50:15.693Z,13.32
2022-10-13T20:52:42.207Z,13.32
2022-10-13T20:55:09.743Z,13.34
2022-10-13T20:57:36.182Z,13.34
2022-10-13T21:00:03.960Z,13.34
2022-10-13T21:02:30.540Z,13.28
2022-10-13T21:04:57.061Z,13.28
2022-10-13T21:07:23.771Z,13.30
2022-10-13T21:09:53.788Z,13.20
2022-10-13T21:12:21.386Z,13.16
2022-10-13T21:14:47.925Z,13.19
2022-10-13T21:17:14.555Z,13.15
2022-10-13T21:19:41.317Z,13.18
2022-10-13T21:22:07.957Z,13.16
2022-10-13T21:24:34.510Z,13.10
2022-10-13T21:27:01.011Z,13.08
2022-10-13T21:29:27.553Z,13.09
2022-10-13T21:31:54.169Z,13.11
2022-10-13T21:34:20.664Z,13.11
2022-10-13T21:36:47.190Z,13.07
2022-10-13T21:39:14.143Z,13.00
2022-10-13T21:41:41.222Z,12.87
2022-10-13T21:44:07.787Z,12.86
2022-10-13T21:46:35.087Z,12.87
2022-10-13T21:49:05.100Z,12.89
2022-10-13T21:51:37.548Z,12.92
2022-10-13T21:54:11.995Z,12.92
2022-10-13T21:56:40.101Z,12.96
2022-10-13T21:59:07.365Z,12.98
2022-10-13T22:01:36.055Z,13.03
2022-10-13T22:04:02.926Z,13.06
2022-10-13T22:06:31.699Z,13.05
2022-10-13T22:09:00.382Z,12.92
2022-10-13T22:11:30.834Z,13.00
2022-10-13T22:13:57.812Z,13.12
2022-10-13T22:16:30.377Z,13.16
2022-10-13T22:18:58.321Z,13.09
2022-10-13T22:21:31.019Z,13.03
2022-10-13T22:23:59.732Z,13.02
2022-10-13T22:26:27.867Z,13.03
2022-10-13T22:28:55.027Z,12.99
2022-10-13T22:31:21.536Z,13.02
2022-10-13T22:33:48.368Z,13.05
2022-10-13T22:36:18.754Z,13.12
2022-10-13T22:38:46.677Z,13.17
2022-10-13T22:41:14.844Z,13.17
2022-10-13T22:43:44.284Z,13.16
2022-10-13T22:46:12.423Z,13.14
2022-10-13T22:48:40.862Z,13.17
2022-10-13T22:51:08.583Z,13.03
2022-10-13T22:53:35.087Z,13.03
2022-10-13T22:56:07.343Z,12.97
2022-10-13T22:58:34.569Z,12.96
2022-10-13T23:01:09.355Z,12.91
2022-10-13T23:03:37.437Z,12.97
2022-10-13T23:06:05.389Z,12.93
2022-10-13T23:08:32.103Z,12.87
2022-10-13T23:10:58.964Z,12.89
2022-10-13T23:13:25.993Z,12.94
2022-10-13T23:15:52.856Z,13.05
2022-10-13T23:18:19.369Z,13.00
2022-10-13T23:20:45.891Z,12.96
2022-10-13T23:23:12.411Z,12.95
2022-10-13T23:25:38.879Z,12.91
2022-10-13T23:28:05.416Z,12.79
2022-10-13T23:30:32.016Z,12.67
2022-10-13T23:32:58.517Z,12.61
2022-10-13T23:35:25.131Z,12.66
2022-10-13T23:37:52.818Z,12.77
2022-10-13T23:40:19.790Z,12.79
2022-10-13T23:42:46.554Z,12.83
2022-10-13T23:45:13.052Z,12.89
2022-10-13T23:47:39.565Z,12.93
2022-10-13T23:50:06.566Z,12.90
2022-10-13T23:52:33.097Z,12.90
2022-10-13T23:54:59.581Z,12.87
2022-10-13T23:57:26.140Z,12.91
2022-10-13T23:59:52.576Z,12.94
